createdAt,value
2022-11-18T00:01:23.251Z,9.00
2022-11-18T00:03:52.430Z,9.00
2022-11-18T00:06:26.870Z,9.00
2022-11-18T00:08:56.093Z,9.00
2022-11-18T00:11:45.167Z,9.00
2022-11-18T00:14:19.779Z,9.00
2022-11-18T00:17:02.497Z,9.00
2022-11-18T00:19:39.104Z,8.90
2022-11-18T00:22:09.842Z,8.90
2022-11-18T00:24:37.509Z,8.90
2022-11-18T00:27:05.166Z,8.90
2022-11-18T00:29:32.905Z,8.90
2022-11-18T00:32:00.566Z,8.90
2022-11-18T00:34:28.263Z,8.90
2022-11-18T00:36:55.972Z,8.90
2022-11-18T00:39:23.648Z,8.90
2022-11-18T00:42:09.526Z,8.90
2022-11-18T00:44:37.171Z,8.80
2022-11-18T00:47:05.610Z,8.80
2022-11-18T00:49:33.271Z,8.80
2022-11-18T00:52:01.361Z,8.80
2022-11-18T00:54:28.957Z,8.80
2022-11-18T00:56:56.595Z,8.80
2022-11-18T00:59:24.187Z,8.80
2022-11-18T01:01:51.892Z,8.80
2022-11-18T01:04:19.635Z,8.80
2022-11-18T01:06:47.319Z,8.80
2022-11-18T01:09:15.426Z,8.80
2022-11-18T01:12:02.114Z,8.70
2022-11-18T01:14:29.822Z,8.70
2022-11-18T01:16:58.217Z,8.70
2022-11-18T01:19:26.323Z,8.70
2022-11-18T01:21:54.472Z,8.70
2022-11-18T01:24:23.099Z,8.70
2022-11-18T01:26:50.732Z,8.70
2022-11-18T01:29:18.534Z,8.70
2022-11-18T01:32:09.220Z,8.60
2022-11-18T01:34:34.229Z,8.60
2022-11-18T01:37:01.793Z,8.60
2022-11-18T01:39:29.545Z,8.60
2022-11-18T01:41:57.172Z,8.50
2022-11-18T01:44:59.024Z,8.50
2022-11-18T01:47:37.897Z,8.50
2022-11-18T01:50:06.545Z,8.50
2022-11-18T01:52:35.131Z,8.50
2022-11-18T01:55:19.732Z,8.50
2022-11-18T01:57:50.137Z,8.50
2022-11-18T02:00:18.409Z,8.50
2022-11-18T02:02:46.840Z,8.50
2022-11-18T02:05:15.508Z,8.50
2022-11-18T02:07:44.222Z,8.40
2022-11-18T02:10:25.019Z,8.40
2022-11-18T02:12:54.916Z,8.40
2022-11-18T02:16:03.826Z,8.40
2022-11-18T02:18:51.435Z,8.40
2022-11-18T02:21:46.352Z,8.40
2022-11-18T02:24:43.513Z,8.40
2022-11-18T02:27:57.478Z,8.40
2022-11-18T02:30:25.502Z,8.40
2022-11-18T02:33:07.411Z,8.40
2022-11-18T02:35:44.804Z,8.40
2022-11-18T02:38:22.284Z,8.40
2022-11-18T02:40:56.442Z,8.30
2022-11-18T02:43:40.744Z,8.40
2022-11-18T02:46:17.659Z,8.40
2022-11-18T02:48:49.950Z,8.30
2022-11-18T02:51:26.044Z,8.30
2022-11-18T02:53:59.657Z,8.30
2022-11-18T02:56:28.516Z,8.30
2022-11-18T02:58:56.062Z,8.30
2022-11-18T03:01:31.338Z,8.30
2022-11-18T03:03:58.987Z,8.30
2022-11-18T03:06:36.962Z,8.30
2022-11-18T03:09:27.671Z,8.20
2022-11-18T03:12:27.810Z,8.20
2022-11-18T03:14:58.065Z,8.20
2022-11-18T03:17:51.530Z,8.20
2022-11-18T03:20:48.246Z,8.20
2022-11-18T03:23:52.024Z,8.10
2022-11-18T03:26:26.376Z,8.10
2022-11-18T03:29:13.474Z,8.10
2022-11-18T03:31:46.763Z,8.00
2022-11-18T03:34:25.255Z,8.00
2022-11-18T03:37:00.657Z,8.00
2022-11-18T03:39:33.103Z,8.00
2022-11-18T03:42:12.948Z,8.00
2022-11-18T03:44:51.075Z,8.00
2022-11-18T03:47:30.305Z,8.00
2022-11-18T03:50:06.876Z,8.00
2022-11-18T03:52:37.221Z,7.90
2022-11-18T03:55:14.648Z,8.00
2022-11-18T03:58:10.545Z,7.90
2022-11-18T04:00:46.299Z,7.90
2022-11-18T04:03:14.371Z,7.80
2022-11-18T04:05:43.788Z,7.80
2022-11-18T04:08:18.682Z,7.80
2022-11-18T04:10:52.767Z,7.80
2022-11-18T04:13:39.649Z,7.80
2022-11-18T04:16:09.821Z,7.80
2022-11-18T04:18:37.444Z,7.80
2022-11-18T04:21:05.419Z,7.80
2022-11-18T04:23:32.984Z,7.80
2022-11-18T04:26:00.684Z,7.80
2022-11-18T04:28:28.344Z,7.80
2022-11-18T04:30:55.949Z,7.80
2022-11-18T04:33:23.519Z,7.80
2022-11-18T04:35:51.102Z,7.70
2022-11-18T04:38:21.936Z,7.70
2022-11-18T04:40:49.867Z,7.70
2022-11-18T04:43:17.422Z,7.70
2022-11-18T04:45:45.373Z,7.70
2022-11-18T04:48:12.975Z,7.70
2022-11-18T04:50:40.641Z,7.70
2022-11-18T04:53:08.208Z,7.80
2022-11-18T04:55:37.121Z,7.80
2022-11-18T04:58:04.736Z,7.80
2022-11-18T05:00:32.322Z,7.80
2022-11-18T05:02:59.957Z,7.80
2022-11-18T05:05:27.554Z,7.80
2022-11-18T05:07:55.199Z,7.80
2022-11-18T05:10:22.906Z,7.80
2022-11-18T05:12:50.614Z,7.80
2022-11-18T05:15:23.937Z,7.80
2022-11-18T05:17:51.647Z,7.80
2022-11-18T05:20:19.284Z,7.80
2022-11-18T05:22:46.934Z,7.90
2022-11-18T05:25:14.538Z,7.90
2022-11-18T05:27:42.212Z,7.90
2022-11-18T05:30:10.692Z,7.90
2022-11-18T05:32:38.325Z,7.90
2022-11-18T05:35:07.045Z,7.90
2022-11-18T05:37:34.724Z,8.00
2022-11-18T05:40:02.370Z,8.00
2022-11-18T05:42:48.341Z,8.00
2022-11-18T05:45:16.912Z,8.00
2022-11-18T05:48:04.610Z,8.00
2022-11-18T05:50:37.669Z,8.00
2022-11-18T05:53:05.663Z,8.00
2022-11-18T05:55:48.361Z,8.10
2022-11-18T05:58:15.985Z,8.10
2022-11-18T06:00:47.303Z,8.10
2022-11-18T06:03:30.249Z,8.10
2022-11-18T06:06:02.388Z,8.10
2022-11-18T06:08:39.310Z,8.10
2022-11-18T06:11:11.599Z,8.10
2022-11-18T06:13:51.912Z,8.10
2022-11-18T06:16:26.052Z,8.10
2022-11-18T06:18:53.979Z,8.10
2022-11-18T06:21:21.780Z,8.10
2022-11-18T06:23:49.693Z,8.10
2022-11-18T06:26:17.639Z,8.10
2022-11-18T06:28:47.209Z,8.10
2022-11-18T06:31:16.713Z,8.10
2022-11-18T06:33:44.330Z,8.10
2022-11-18T06:36:12.050Z,8.10
2022-11-18T06:38:39.733Z,8.10
2022-11-18T06:41:07.322Z,8.10
2022-11-18T06:43:43.972Z,8.10
2022-11-18T06:46:35.916Z,8.10
2022-11-18T06:49:03.917Z,8.10
2022-11-18T06:51:31.703Z,8.10
2022-11-18T06:53:59.366Z,8.10
2022-11-18T06:56:27.139Z,8.20
2022-11-18T06:58:57.805Z,8.20
2022-11-18T07:01:29.290Z,8.20
2022-11-18T07:03:59.844Z,8.20
2022-11-18T07:06:31.753Z,8.20
2022-11-18T07:09:06.694Z,8.20
2022-11-18T07:11:34.660Z,8.20
2022-11-18T07:14:02.502Z,8.20
2022-11-18T07:16:30.134Z,8.20
2022-11-18T07:18:57.770Z,8.30
2022-11-18T07:21:28.335Z,8.30
2022-11-18T07:23:57.024Z,8.30
2022-11-18T07:26:24.765Z,8.30
2022-11-18T07:28:53.931Z,8.30
2022-11-18T07:31:21.718Z,8.30
2022-11-18T07:33:50.356Z,8.30
2022-11-18T07:36:21.720Z,8.30
2022-11-18T07:38:50.256Z,8.30
2022-11-18T07:41:25.336Z,8.30
2022-11-18T07:44:00.243Z,8.40
2022-11-18T07:46:36.339Z,8.30
2022-11-18T07:49:09.208Z,8.40
2022-11-18T07:51:39.661Z,8.40
2022-11-18T07:54:12.824Z,8.40
2022-11-18T07:56:40.606Z,8.40
2022-11-18T07:59:08.996Z,8.40
2022-11-18T08:01:36.758Z,8.40
2022-11-18T08:04:11.564Z,8.40
2022-11-18T08:06:40.100Z,8.40
2022-11-18T08:09:08.683Z,8.40
2022-11-18T08:11:37.126Z,8.40
2022-11-18T08:14:04.843Z,8.40
2022-11-18T08:16:32.454Z,8.40
2022-11-18T08:19:00.966Z,8.40
2022-11-18T08:21:28.857Z,8.40
2022-11-18T08:23:58.349Z,8.40
2022-11-18T08:26:26.972Z,8.50
2022-11-18T08:28:54.771Z,8.50
2022-11-18T08:31:26.345Z,8.50
2022-11-18T08:34:02.091Z,8.50
2022-11-18T08:36:32.327Z,8.60
2022-11-18T08:39:02.754Z,8.50
2022-11-18T08:41:40.045Z,8.60
2022-11-18T08:44:10.506Z,8.60
2022-11-18T08:46:38.280Z,8.70
2022-11-18T08:49:05.908Z,8.70
2022-11-18T08:51:33.585Z,8.70
2022-11-18T08:54:01.234Z,8.70
2022-11-18T08:56:28.889Z,8.70
2022-11-18T08:58:57.043Z,8.70
2022-11-18T09:01:25.220Z,8.80
2022-11-18T09:03:52.928Z,8.80
2022-11-18T09:06:24.832Z,8.80
2022-11-18T09:08:53.841Z,8.80
2022-11-18T09:11:24.831Z,8.80
2022-11-18T09:15:06.464Z,8.80
2022-11-18T09:16:42.597Z,8.80
2022-11-18T09:19:40.121Z,8.90
2022-11-18T09:21:58.324Z,8.90
2022-11-18T09:24:25.942Z,8.90
2022-11-18T09:26:53.977Z,8.90
2022-11-18T09:29:25.461Z,8.90
2022-11-18T09:31:54.418Z,8.90
2022-11-18T09:34:23.355Z,8.90
2022-11-18T09:36:55.761Z,8.90
2022-11-18T09:39:25.429Z,8.90
2022-11-18T09:42:23.549Z,9.00
2022-11-18T09:45:28.810Z,9.00
2022-11-18T09:47:59.715Z,9.00
2022-11-18T09:50:48.567Z,9.00
2022-11-18T09:53:25.521Z,9.00
2022-11-18T09:55:53.842Z,9.00
2022-11-18T09:58:35.203Z,9.00
2022-11-18T10:01:04.260Z,9.10
2022-11-18T10:03:34.954Z,9.00
2022-11-18T10:06:10.494Z,9.10
2022-11-18T10:09:07.118Z,9.10
2022-11-18T10:12:20.406Z,9.10
2022-11-18T10:15:19.113Z,9.10
2022-11-18T10:18:59.316Z,9.10
2022-11-18T10:21:33.589Z,9.10
2022-11-18T10:24:24.740Z,9.10
2022-11-18T10:26:58.791Z,9.10
2022-11-18T10:29:27.437Z,9.10
2022-11-18T10:32:13.843Z,9.10
2022-11-18T10:34:53.210Z,9.20
2022-11-18T10:38:05.809Z,9.20
2022-11-18T10:40:28.551Z,9.20
2022-11-18T10:42:56.518Z,9.20
2022-11-18T10:45:29.650Z,9.20
2022-11-18T10:47:58.320Z,9.20
2022-11-18T10:50:34.500Z,9.20
2022-11-18T10:53:03.690Z,9.20
2022-11-18T10:55:31.882Z,9.20
2022-11-18T10:58:16.340Z,9.20
2022-11-18T11:00:48.322Z,9.20
2022-11-18T11:03:24.645Z,9.20
2022-11-18T11:06:32.777Z,9.20
2022-11-18T11:09:25.729Z,9.20
2022-11-18T11:12:13.564Z,9.20
2022-11-18T11:14:57.526Z,9.20
2022-11-18T11:17:45.582Z,9.30
2022-11-18T11:20:24.608Z,9.30
2022-11-18T11:22:52.319Z,9.30
2022-11-18T11:28:48.379Z,9.30
2022-11-18T11:31:39.745Z,9.30
2022-11-18T11:34:18.297Z,9.30
2022-11-18T11:37:02.939Z,9.30
2022-11-18T11:40:12.857Z,9.30
2022-11-18T11:43:11.280Z,9.30
2022-11-18T11:46:07.941Z,9.30
2022-11-18T11:49:06.879Z,9.30
2022-11-18T11:51:44.133Z,9.40
2022-11-18T11:54:37.712Z,9.40
2022-11-18T11:57:33.950Z,9.40
2022-11-18T12:00:13.490Z,9.40
2022-11-18T12:02:52.790Z,9.40
2022-11-18T12:05:26.893Z,9.40
2022-11-18T12:08:21.765Z,9.50
2022-11-18T12:11:36.681Z,9.50
2022-11-18T12:14:04.252Z,9.50
2022-11-18T12:16:53.972Z,9.50
2022-11-18T12:19:23.606Z,9.50
2022-11-18T12:21:58.325Z,9.50
2022-11-18T12:24:43.314Z,9.50
2022-11-18T12:27:15.280Z,9.60
2022-11-18T12:29:50.502Z,9.60
2022-11-18T12:32:42.716Z,9.60
2022-11-18T12:35:13.652Z,9.70
2022-11-18T12:37:53.078Z,9.70
2022-11-18T12:40:48.898Z,9.60
2022-11-18T12:43:44.180Z,9.70
2022-11-18T12:46:27.034Z,9.70
2022-11-18T12:48:54.629Z,9.70
2022-11-18T12:51:22.166Z,9.70
2022-11-18T12:53:51.486Z,9.70
2022-11-18T12:56:36.783Z,9.70
2022-11-18T12:59:04.390Z,9.80
2022-11-18T13:01:35.445Z,9.80
2022-11-18T13:04:29.484Z,9.80
2022-11-18T13:07:00.354Z,9.80
2022-11-18T13:09:32.965Z,9.80
2022-11-18T13:12:17.049Z,9.80
2022-11-18T13:15:03.991Z,9.90
2022-11-18T13:17:54.895Z,9.90
2022-11-18T13:20:24.065Z,9.90
2022-11-18T13:23:16.968Z,9.90
2022-11-18T13:25:46.068Z,9.90
2022-11-18T13:28:31.967Z,9.90
2022-11-18T13:31:22.096Z,10.00
2022-11-18T13:33:50.535Z,10.00
2022-11-18T13:36:24.684Z,10.00
2022-11-18T13:39:05.153Z,10.00
2022-11-18T13:41:35.140Z,10.00
2022-11-18T13:44:27.373Z,10.10
2022-11-18T13:47:12.381Z,10.10
2022-11-18T13:49:50.876Z,10.10
2022-11-18T13:52:35.861Z,10.20
2022-11-18T13:55:22.005Z,10.20
2022-11-18T13:57:52.053Z,10.20
2022-11-18T14:00:29.367Z,10.20
2022-11-18T14:03:03.108Z,10.20
2022-11-18T14:05:31.253Z,10.20
2022-11-18T14:08:39.244Z,10.20
2022-11-18T14:11:07.711Z,10.20
2022-11-18T14:13:47.596Z,10.30
2022-11-18T14:16:21.061Z,10.30
2022-11-18T14:18:51.745Z,10.30
2022-11-18T14:21:38.229Z,10.30
2022-11-18T14:24:06.406Z,10.30
2022-11-18T14:26:38.837Z,10.30
2022-11-18T14:29:23.158Z,10.30
2022-11-18T14:32:26.846Z,10.30
2022-11-18T14:35:02.018Z,10.20
2022-11-18T14:37:30.526Z,10.20
2022-11-18T14:39:58.618Z,10.20
2022-11-18T14:42:26.349Z,10.20
2022-11-18T14:44:54.015Z,10.20
2022-11-18T14:47:27.723Z,10.20
2022-11-18T14:49:55.544Z,10.20
2022-11-18T14:52:23.362Z,10.10
2022-11-18T14:54:52.113Z,10.00
2022-11-18T14:57:19.652Z,10.10
2022-11-18T14:59:47.352Z,10.10
2022-11-18T15:02:17.659Z,10.10
2022-11-18T15:04:45.392Z,10.00
2022-11-18T15:07:20.056Z,10.10
2022-11-18T15:09:51.199Z,10.10
2022-11-18T15:12:18.757Z,10.10
2022-11-18T15:14:46.332Z,10.10
2022-11-18T15:17:14.113Z,10.00
2022-11-18T15:19:41.848Z,10.10
2022-11-18T15:22:09.740Z,10.00
2022-11-18T15:24:37.683Z,10.00
2022-11-18T15:27:05.650Z,10.00
2022-11-18T15:29:33.861Z,10.00
2022-11-18T15:32:05.134Z,10.00
2022-11-18T15:34:33.164Z,10.00
2022-11-18T15:37:00.716Z,10.00
2022-11-18T15:39:28.303Z,10.00
2022-11-18T15:41:55.924Z,10.00
2022-11-18T15:44:24.642Z,10.00
2022-11-18T15:46:52.251Z,10.00
2022-11-18T15:49:19.906Z,10.00
2022-11-18T15:51:47.634Z,10.00
2022-11-18T15:54:15.223Z,10.00
2022-11-18T15:56:42.906Z,10.00
2022-11-18T15:59:13.386Z,10.00
2022-11-18T16:01:47.035Z,10.00
2022-11-18T16:04:18.939Z,10.00
2022-11-18T16:06:47.432Z,9.90
2022-11-18T16:09:16.978Z,9.90
2022-11-18T16:12:03.232Z,9.90
2022-11-18T16:14:31.018Z,9.90
2022-11-18T16:16:58.681Z,9.90
2022-11-18T16:19:27.238Z,9.90
2022-11-18T16:21:57.049Z,9.90
2022-11-18T16:24:29.523Z,9.90
2022-11-18T16:26:57.728Z,9.90
2022-11-18T16:29:25.642Z,9.90
2022-11-18T16:31:54.542Z,9.90
2022-11-18T16:34:28.892Z,9.90
2022-11-18T16:37:01.586Z,9.80
2022-11-18T16:39:29.980Z,9.80
2022-11-18T16:42:07.970Z,9.80
2022-11-18T16:44:37.861Z,9.80
2022-11-18T16:47:13.735Z,9.80
2022-11-18T16:49:43.369Z,9.80
2022-11-18T16:52:11.079Z,9.80
2022-11-18T16:54:44.937Z,9.80
2022-11-18T16:57:14.324Z,9.80
2022-11-18T16:59:41.887Z,9.80
2022-11-18T17:02:13.086Z,9.80
2022-11-18T17:04:41.174Z,9.80
2022-11-18T17:07:08.794Z,9.80
2022-11-18T17:09:37.289Z,9.90
2022-11-18T17:12:06.344Z,9.80
2022-11-18T17:14:34.386Z,9.80
2022-11-18T17:17:01.974Z,9.80
2022-11-18T17:19:29.548Z,9.80
2022-11-18T17:21:57.830Z,9.80
2022-11-18T17:24:25.834Z,9.80
2022-11-18T17:26:53.502Z,9.70
2022-11-18T17:29:21.681Z,9.80
2022-11-18T17:31:49.599Z,9.80
2022-11-18T17:34:17.660Z,9.80
2022-11-18T17:36:45.746Z,9.80
2022-11-18T17:39:13.809Z,9.80
2022-11-18T17:41:59.844Z,9.80
2022-11-18T17:44:28.828Z,9.80
2022-11-18T17:46:56.657Z,9.80
2022-11-18T17:49:24.326Z,9.80
2022-11-18T17:51:51.878Z,9.80
2022-11-18T17:54:20.844Z,9.80
2022-11-18T17:56:52.164Z,9.80
2022-11-18T17:59:20.925Z,9.80
2022-11-18T18:01:51.842Z,9.70
2022-11-18T18:04:23.385Z,9.70
2022-11-18T18:06:52.990Z,9.70
2022-11-18T18:09:26.919Z,9.70
2022-11-18T18:11:59.574Z,9.60
2022-11-18T18:14:27.110Z,9.60
2022-11-18T18:16:54.730Z,9.60
2022-11-18T18:19:23.644Z,9.60
2022-11-18T18:21:53.007Z,9.60
2022-11-18T18:24:21.121Z,9.50
2022-11-18T18:26:49.231Z,9.50
2022-11-18T18:29:17.140Z,9.50
2022-11-18T18:31:44.827Z,9.40
2022-11-18T18:34:12.514Z,9.40
2022-11-18T18:36:40.093Z,9.40
2022-11-18T18:39:07.826Z,9.30
2022-11-18T18:41:35.654Z,9.20
2022-11-18T18:44:03.381Z,9.20
2022-11-18T18:46:33.666Z,9.10
2022-11-18T18:49:13.973Z,9.10
2022-11-18T18:51:44.590Z,9.10
2022-11-18T18:54:18.784Z,9.10
2022-11-18T18:56:46.776Z,9.10
2022-11-18T18:59:14.427Z,9.00
2022-11-18T19:01:42.140Z,9.10
2022-11-18T19:04:13.990Z,9.10
2022-11-18T19:06:58.959Z,9.10
2022-11-18T19:09:28.027Z,9.10
2022-11-18T19:12:14.587Z,9.10
2022-11-18T19:14:42.363Z,9.10
2022-11-18T19:17:12.708Z,9.10
2022-11-18T19:20:01.053Z,9.10
2022-11-18T19:22:31.579Z,9.10
2022-11-18T19:25:01.154Z,9.10
2022-11-18T19:27:29.590Z,9.00
2022-11-18T19:29:57.203Z,9.00
2022-11-18T19:32:25.750Z,8.90
2022-11-18T19:34:53.361Z,8.90
2022-11-18T19:37:21.052Z,8.90
2022-11-18T19:39:48.604Z,8.80
2022-11-18T19:42:16.193Z,8.70
2022-11-18T19:44:43.967Z,8.80
2022-11-18T19:47:11.705Z,8.90
2022-11-18T19:49:39.431Z,8.90
2022-11-18T19:52:09.482Z,9.00
2022-11-18T19:54:39.622Z,9.00
2022-11-18T19:57:08.065Z,9.00
2022-11-18T19:59:36.625Z,9.10
2022-11-18T20:02:04.321Z,9.10
2022-11-18T20:04:32.503Z,9.10
2022-11-18T20:07:00.172Z,9.10
2022-11-18T20:09:27.987Z,9.10
2022-11-18T20:11:55.782Z,9.10
2022-11-18T20:14:23.730Z,9.00
2022-11-18T20:16:54.402Z,9.10
2022-11-18T20:19:22.258Z,9.10
2022-11-18T20:21:50.327Z,9.10
2022-11-18T20:24:18.865Z,9.10
2022-11-18T20:26:46.786Z,9.20
2022-11-18T20:29:14.479Z,9.20
2022-11-18T20:31:42.563Z,9.20
2022-11-18T20:34:16.842Z,9.20
2022-11-18T20:36:44.744Z,9.20
2022-11-18T20:39:16.807Z,9.20
2022-11-18T20:42:10.811Z,9.20
2022-11-18T20:44:39.139Z,9.20
2022-11-18T20:47:07.049Z,9.20
2022-11-18T20:49:35.105Z,9.10
2022-11-18T20:52:02.941Z,9.10
2022-11-18T20:54:30.550Z,9.00
2022-11-18T20:56:58.146Z,9.00
2022-11-18T20:59:25.691Z,9.00
2022-11-18T21:01:53.246Z,9.00
2022-11-18T21:04:20.967Z,9.00
2022-11-18T21:06:48.658Z,8.90
2022-11-18T21:09:17.065Z,8.90
2022-11-18T21:11:44.991Z,8.90
2022-11-18T21:14:23.872Z,8.90
2022-11-18T21:17:01.252Z,8.90
2022-11-18T21:19:29.754Z,8.90
2022-11-18T21:21:57.516Z,9.00
2022-11-18T21:24:32.602Z,9.00
2022-11-18T21:27:02.444Z,9.00
2022-11-18T21:29:32.277Z,8.90
2022-11-18T21:32:01.545Z,8.90
2022-11-18T21:34:29.421Z,8.80
2022-11-18T21:36:57.238Z,8.70
2022-11-18T21:39:25.530Z,8.60
2022-11-18T21:41:56.177Z,8.60
2022-11-18T21:44:27.901Z,8.50
2022-11-18T21:46:56.424Z,8.50
2022-11-18T21:49:24.122Z,8.50
2022-11-18T21:51:51.833Z,8.50
2022-11-18T21:54:19.376Z,8.50
2022-11-18T21:56:46.949Z,8.40
2022-11-18T21:59:14.534Z,8.40
2022-11-18T22:01:42.131Z,8.50
2022-11-18T22:04:30.036Z,8.40
2022-11-18T22:06:57.707Z,8.50
2022-11-18T22:09:25.285Z,8.50
2022-11-18T22:11:52.925Z,8.50
2022-11-18T22:14:20.465Z,8.50
2022-11-18T22:16:51.313Z,8.50
2022-11-18T22:19:19.046Z,8.50
2022-11-18T22:21:46.897Z,8.60
2022-11-18T22:24:14.477Z,8.60
2022-11-18T22:26:42.114Z,8.60
2022-11-18T22:29:09.693Z,8.70
2022-11-18T22:31:37.279Z,8.70
2022-11-18T22:34:05.236Z,8.70
2022-11-18T22:36:33.025Z,8.70
2022-11-18T22:39:00.690Z,8.80
2022-11-18T22:41:48.079Z,8.80
2022-11-18T22:44:17.773Z,8.80
2022-11-18T22:46:46.180Z,8.80
2022-11-18T22:49:14.190Z,8.70
2022-11-18T22:51:41.828Z,8.80
2022-11-18T22:54:37.275Z,8.80
2022-11-18T22:56:57.767Z,8.80
2022-11-18T22:59:25.495Z,8.80
2022-11-18T23:01:53.514Z,8.80
2022-11-18T23:04:21.307Z,8.80
2022-11-18T23:06:49.572Z,8.80
2022-11-18T23:09:17.741Z,8.70
2022-11-18T23:12:04.416Z,8.80
2022-11-18T23:14:32.328Z,8.70
2022-11-18T23:16:59.913Z,8.70
2022-11-18T23:19:27.487Z,8.70
2022-11-18T23:21:55.053Z,8.60
2022-11-18T23:24:22.739Z,8.60
2022-11-18T23:26:50.336Z,8.60
2022-11-18T23:29:18.286Z,8.60
2022-11-18T23:31:46.100Z,8.60
2022-11-18T23:34:15.634Z,8.60
2022-11-18T23:36:43.719Z,8.50
2022-11-18T23:39:12.031Z,8.50
2022-11-18T23:41:40.603Z,8.50
2022-11-18T23:44:08.597Z,8.50
2022-11-18T23:46:36.401Z,8.50
2022-11-18T23:49:08.898Z,8.50
2022-11-18T23:51:36.515Z,8.50
2022-11-18T23:54:04.231Z,8.40
2022-11-18T23:56:36.580Z,8.30
2022-11-18T23:59:05.638Z,8.30
